sensor_id;sensor_type;location;lat;lon;timestamp;P1;durP1;ratioP1;P2;durP2;ratioP2
3689;SDS011;1861;50.240;8.596;2022-11-20T00:01:20;19.30;;;11.03;;
3689;SDS011;1861;50.240;8.596;2022-11-20T00:03:50;16.13;;;9.47;;
3689;SDS011;1861;50.240;8.596;2022-11-20T00:06:19;17.10;;;9.63;;
3689;SDS011;1861;50.240;8.596;2022-11-20T00:08:48;16.70;;;9.20;;
3689;SDS011;1861;50.240;8.596;2022-11-20T00:11:17;17.10;;;9.50;;
3689;SDS011;1861;50.240;8.596;2022-11-20T00:13:49;16.40;;;9.97;;
3689;SDS011;1861;50.240;8.596;2022-11-20T00:16:19;18.70;;;9.80;;
3689;SDS011;1861;50.240;8.596;2022-11-20T00:18:48;16.50;;;8.80;;
3689;SDS011;1861;50.240;8.596;2022-11-20T00:21:18;16.20;;;9.30;;
3689;SDS011;1861;50.240;8.596;2022-11-20T00:23:48;17.80;;;9.30;;
3689;SDS011;1861;50.240;8.596;2022-11-20T00:26:17;16.30;;;9.57;;
3689;SDS011;1861;50.240;8.596;2022-11-20T00:28:50;18.93;;;9.83;;
3689;SDS011;1861;50.240;8.596;2022-11-20T00:31:20;18.90;;;10.17;;
3689;SDS011;1861;50.240;8.596;2022-11-20T00:33:48;18.33;;;9.90;;
3689;SDS011;1861;50.240;8.596;2022-11-20T00:36:17;16.83;;;10.50;;
3689;SDS011;1861;50.240;8.596;2022-11-20T00:38:46;20.90;;;9.60;;
3689;SDS011;1861;50.240;8.596;2022-11-20T00:41:18;16.87;;;9.47;;
3689;SDS011;1861;50.240;8.596;2022-11-20T00:43:46;16.50;;;10.40;;
3689;SDS011;1861;50.240;8.596;2022-11-20T00:46:17;19.20;;;9.40;;
3689;SDS011;1861;50.240;8.596;2022-11-20T00:48:46;17.87;;;9.80;;
3689;SDS011;1861;50.240;8.596;2022-11-20T00:51:15;18.80;;;10.33;;
3689;SDS011;1861;50.240;8.596;2022-11-20T00:53:45;18.40;;;10.27;;
3689;SDS011;1861;50.240;8.596;2022-11-20T00:56:14;18.53;;;10.93;;
3689;SDS011;1861;50.240;8.596;2022-11-20T00:58:44;19.67;;;11.33;;
3689;SDS011;1861;50.240;8.596;2022-11-20T01:01:14;23.63;;;11.57;;
3689;SDS011;1861;50.240;8.596;2022-11-20T01:03:46;20.27;;;11.40;;
3689;SDS011;1861;50.240;8.596;2022-11-20T01:06:15;30.10;;;16.57;;
3689;SDS011;1861;50.240;8.596;2022-11-20T01:08:45;24.73;;;12.40;;
3689;SDS011;1861;50.240;8.596;2022-11-20T01:11:14;18.47;;;9.80;;
3689;SDS011;1861;50.240;8.596;2022-11-20T01:13:44;19.73;;;11.27;;
3689;SDS011;1861;50.240;8.596;2022-11-20T01:16:14;18.50;;;9.90;;
3689;SDS011;1861;50.240;8.596;2022-11-20T01:18:45;16.67;;;9.57;;
3689;SDS011;1861;50.240;8.596;2022-11-20T01:21:15;18.70;;;10.70;;
3689;SDS011;1861;50.240;8.596;2022-11-20T01:23:45;16.87;;;9.67;;
3689;SDS011;1861;50.240;8.596;2022-11-20T01:26:15;18.13;;;9.90;;
3689;SDS011;1861;50.240;8.596;2022-11-20T01:28:44;17.20;;;9.83;;
3689;SDS011;1861;50.240;8.596;2022-11-20T01:31:14;20.77;;;10.80;;
3689;SDS011;1861;50.240;8.596;2022-11-20T01:33:45;19.13;;;9.80;;
3689;SDS011;1861;50.240;8.596;2022-11-20T01:36:15;19.10;;;10.00;;
3689;SDS011;1861;50.240;8.596;2022-11-20T01:38:44;19.80;;;10.57;;
3689;SDS011;1861;50.240;8.596;2022-11-20T01:41:14;17.23;;;9.50;;
3689;SDS011;1861;50.240;8.596;2022-11-20T01:44:03;17.17;;;9.30;;
3689;SDS011;1861;50.240;8.596;2022-11-20T01:46:31;18.23;;;11.00;;
3689;SDS011;1861;50.240;8.596;2022-11-20T01:49:04;18.30;;;9.67;;
3689;SDS011;1861;50.240;8.596;2022-11-20T01:51:38;17.00;;;9.27;;
3689;SDS011;1861;50.240;8.596;2022-11-20T01:54:11;19.30;;;10.40;;
3689;SDS011;1861;50.240;8.596;2022-11-20T01:56:47;15.27;;;9.80;;
3689;SDS011;1861;50.240;8.596;2022-11-20T01:59:18;18.93;;;10.50;;
3689;SDS011;1861;50.240;8.596;2022-11-20T02:01:48;20.10;;;11.07;;
3689;SDS011;1861;50.240;8.596;2022-11-20T02:04:18;17.40;;;10.37;;
3689;SDS011;1861;50.240;8.596;2022-11-20T02:06:47;16.83;;;9.80;;
3689;SDS011;1861;50.240;8.596;2022-11-20T02:09:18;19.20;;;10.70;;
3689;SDS011;1861;50.240;8.596;2022-11-20T02:11:47;21.57;;;10.10;;
3689;SDS011;1861;50.240;8.596;2022-11-20T02:14:15;17.00;;;9.97;;
3689;SDS011;1861;50.240;8.596;2022-11-20T02:16:43;16.70;;;9.60;;
3689;SDS011;1861;50.240;8.596;2022-11-20T02:19:17;23.17;;;10.47;;
3689;SDS011;1861;50.240;8.596;2022-11-20T02:21:53;17.97;;;9.80;;
3689;SDS011;1861;50.240;8.596;2022-11-20T02:24:28;21.53;;;10.83;;
3689;SDS011;1861;50.240;8.596;2022-11-20T02:26:57;16.10;;;9.77;;
3689;SDS011;1861;50.240;8.596;2022-11-20T02:29:31;17.17;;;9.90;;
3689;SDS011;1861;50.240;8.596;2022-11-20T02:32:02;18.83;;;10.40;;
3689;SDS011;1861;50.240;8.596;2022-11-20T02:34:31;17.47;;;9.13;;
3689;SDS011;1861;50.240;8.596;2022-11-20T02:36:59;19.13;;;9.97;;
3689;SDS011;1861;50.240;8.596;2022-11-20T02:39:29;18.20;;;9.57;;
3689;SDS011;1861;50.240;8.596;2022-11-20T02:41:57;19.70;;;10.17;;
3689;SDS011;1861;50.240;8.596;2022-11-20T02:44:27;15.37;;;9.70;;
3689;SDS011;1861;50.240;8.596;2022-11-20T02:46:56;17.90;;;9.63;;
3689;SDS011;1861;50.240;8.596;2022-11-20T02:49:24;13.87;;;8.50;;
3689;SDS011;1861;50.240;8.596;2022-11-20T02:51:52;15.20;;;9.93;;
3689;SDS011;1861;50.240;8.596;2022-11-20T02:54:20;19.20;;;10.67;;
3689;SDS011;1861;50.240;8.596;2022-11-20T02:56:50;18.23;;;10.40;;
3689;SDS011;1861;50.240;8.596;2022-11-20T02:59:18;18.77;;;10.50;;
3689;SDS011;1861;50.240;8.596;2022-11-20T03:01:47;18.30;;;10.83;;
3689;SDS011;1861;50.240;8.596;2022-11-20T03:04:15;15.13;;;8.97;;
3689;SDS011;1861;50.240;8.596;2022-11-20T03:06:43;22.50;;;10.80;;
3689;SDS011;1861;50.240;8.596;2022-11-20T03:09:12;16.57;;;9.97;;
3689;SDS011;1861;50.240;8.596;2022-11-20T03:11:40;17.60;;;9.90;;
3689;SDS011;1861;50.240;8.596;2022-11-20T03:14:09;16.50;;;9.60;;
3689;SDS011;1861;50.240;8.596;2022-11-20T03:16:37;18.77;;;10.77;;
3689;SDS011;1861;50.240;8.596;2022-11-20T03:19:06;18.40;;;9.80;;
3689;SDS011;1861;50.240;8.596;2022-11-20T03:21:34;17.97;;;9.50;;
3689;SDS011;1861;50.240;8.596;2022-11-20T03:24:02;20.80;;;10.10;;
3689;SDS011;1861;50.240;8.596;2022-11-20T03:26:31;17.40;;;9.40;;
3689;SDS011;1861;50.240;8.596;2022-11-20T03:28:59;17.73;;;9.50;;
3689;SDS011;1861;50.240;8.596;2022-11-20T03:31:31;17.37;;;9.90;;
3689;SDS011;1861;50.240;8.596;2022-11-20T03:34:01;18.20;;;10.70;;
3689;SDS011;1861;50.240;8.596;2022-11-20T03:36:29;21.60;;;11.53;;
3689;SDS011;1861;50.240;8.596;2022-11-20T03:38:57;22.90;;;10.10;;
3689;SDS011;1861;50.240;8.596;2022-11-20T03:41:27;19.63;;;11.10;;
3689;SDS011;1861;50.240;8.596;2022-11-20T03:43:57;21.50;;;11.13;;
3689;SDS011;1861;50.240;8.596;2022-11-20T03:46:26;20.77;;;11.20;;
3689;SDS011;1861;50.240;8.596;2022-11-20T03:48:56;21.23;;;11.00;;
3689;SDS011;1861;50.240;8.596;2022-11-20T03:51:25;21.70;;;11.30;;
3689;SDS011;1861;50.240;8.596;2022-11-20T03:53:55;16.40;;;9.97;;
3689;SDS011;1861;50.240;8.596;2022-11-20T03:56:25;21.23;;;10.07;;
3689;SDS011;1861;50.240;8.596;2022-11-20T03:58:55;21.63;;;11.17;;
3689;SDS011;1861;50.240;8.596;2022-11-20T04:01:24;19.87;;;10.83;;
3689;SDS011;1861;50.240;8.596;2022-11-20T04:03:54;20.53;;;11.40;;
3689;SDS011;1861;50.240;8.596;2022-11-20T04:06:25;17.17;;;11.10;;
3689;SDS011;1861;50.240;8.596;2022-11-20T04:08:55;18.30;;;11.03;;
3689;SDS011;1861;50.240;8.596;2022-11-20T04:11:25;21.47;;;10.23;;
3689;SDS011;1861;50.240;8.596;2022-11-20T04:13:55;21.67;;;11.73;;
3689;SDS011;1861;50.240;8.596;2022-11-20T04:16:25;20.10;;;10.97;;
3689;SDS011;1861;50.240;8.596;2022-11-20T04:18:57;18.07;;;10.60;;
3689;SDS011;1861;50.240;8.596;2022-11-20T04:21:27;18.93;;;10.63;;
3689;SDS011;1861;50.240;8.596;2022-11-20T04:23:55;17.53;;;10.87;;
3689;SDS011;1861;50.240;8.596;2022-11-20T04:26:24;19.93;;;10.60;;
3689;SDS011;1861;50.240;8.596;2022-11-20T04:28:53;18.23;;;10.23;;
3689;SDS011;1861;50.240;8.596;2022-11-20T04:31:22;20.23;;;11.30;;
3689;SDS011;1861;50.240;8.596;2022-11-20T04:33:51;22.50;;;10.07;;
3689;SDS011;1861;50.240;8.596;2022-11-20T04:36:22;19.83;;;9.90;;
3689;SDS011;1861;50.240;8.596;2022-11-20T04:38:51;18.70;;;9.80;;
3689;SDS011;1861;50.240;8.596;2022-11-20T04:41:23;22.20;;;11.10;;
3689;SDS011;1861;50.240;8.596;2022-11-20T04:43:53;20.13;;;10.40;;
3689;SDS011;1861;50.240;8.596;2022-11-20T04:46:26;22.10;;;11.23;;
3689;SDS011;1861;50.240;8.596;2022-11-20T04:48:55;17.67;;;10.17;;
3689;SDS011;1861;50.240;8.596;2022-11-20T04:51:24;17.93;;;10.10;;
3689;SDS011;1861;50.240;8.596;2022-11-20T04:53:53;17.83;;;10.80;;
3689;SDS011;1861;50.240;8.596;2022-11-20T04:56:21;18.20;;;10.77;;
3689;SDS011;1861;50.240;8.596;2022-11-20T04:58:49;19.77;;;11.13;;
3689;SDS011;1861;50.240;8.596;2022-11-20T05:01:18;15.30;;;9.70;;
3689;SDS011;1861;50.240;8.596;2022-11-20T05:03:48;20.17;;;10.80;;
3689;SDS011;1861;50.240;8.596;2022-11-20T05:06:17;18.47;;;9.87;;
3689;SDS011;1861;50.240;8.596;2022-11-20T05:08:48;21.67;;;11.30;;
3689;SDS011;1861;50.240;8.596;2022-11-20T05:11:17;19.10;;;11.00;;
3689;SDS011;1861;50.240;8.596;2022-11-20T05:13:47;18.87;;;10.53;;
3689;SDS011;1861;50.240;8.596;2022-11-20T05:16:17;17.57;;;10.30;;
3689;SDS011;1861;50.240;8.596;2022-11-20T05:18:47;21.90;;;11.47;;
3689;SDS011;1861;50.240;8.596;2022-11-20T05:21:16;17.13;;;9.77;;
3689;SDS011;1861;50.240;8.596;2022-11-20T05:23:44;20.63;;;11.27;;
3689;SDS011;1861;50.240;8.596;2022-11-20T05:26:15;20.43;;;11.00;;
3689;SDS011;1861;50.240;8.596;2022-11-20T05:28:45;18.77;;;11.00;;
3689;SDS011;1861;50.240;8.596;2022-11-20T05:31:14;18.33;;;10.07;;
3689;SDS011;1861;50.240;8.596;2022-11-20T05:33:50;18.20;;;10.13;;
3689;SDS011;1861;50.240;8.596;2022-11-20T05:36:18;20.10;;;11.43;;
3689;SDS011;1861;50.240;8.596;2022-11-20T05:38:47;22.10;;;12.33;;
3689;SDS011;1861;50.240;8.596;2022-11-20T05:41:18;20.67;;;10.57;;
3689;SDS011;1861;50.240;8.596;2022-11-20T05:43:48;23.10;;;11.80;;
3689;SDS011;1861;50.240;8.596;2022-11-20T05:46:17;19.10;;;9.90;;
3689;SDS011;1861;50.240;8.596;2022-11-20T05:48:54;24.70;;;12.17;;
3689;SDS011;1861;50.240;8.596;2022-11-20T05:51:23;20.90;;;10.20;;
3689;SDS011;1861;50.240;8.596;2022-11-20T05:53:52;22.57;;;12.37;;
3689;SDS011;1861;50.240;8.596;2022-11-20T05:56:21;22.03;;;11.63;;
3689;SDS011;1861;50.240;8.596;2022-11-20T05:58:49;20.90;;;11.60;;
3689;SDS011;1861;50.240;8.596;2022-11-20T06:01:18;19.67;;;10.80;;
3689;SDS011;1861;50.240;8.596;2022-11-20T06:03:48;22.77;;;11.60;;
3689;SDS011;1861;50.240;8.596;2022-11-20T06:06:17;20.87;;;11.20;;
3689;SDS011;1861;50.240;8.596;2022-11-20T06:08:46;24.83;;;10.77;;
3689;SDS011;1861;50.240;8.596;2022-11-20T06:11:15;19.37;;;10.97;;
3689;SDS011;1861;50.240;8.596;2022-11-20T06:13:46;22.40;;;12.83;;
3689;SDS011;1861;50.240;8.596;2022-11-20T06:16:15;22.57;;;12.07;;
3689;SDS011;1861;50.240;8.596;2022-11-20T06:18:44;21.40;;;12.37;;
3689;SDS011;1861;50.240;8.596;2022-11-20T06:21:13;24.57;;;11.77;;
3689;SDS011;1861;50.240;8.596;2022-11-20T06:23:42;25.60;;;12.03;;
3689;SDS011;1861;50.240;8.596;2022-11-20T06:26:12;20.77;;;10.93;;
3689;SDS011;1861;50.240;8.596;2022-11-20T06:28:42;22.23;;;11.47;;
3689;SDS011;1861;50.240;8.596;2022-11-20T06:31:12;23.50;;;11.47;;
3689;SDS011;1861;50.240;8.596;2022-11-20T06:33:42;20.70;;;11.20;;
3689;SDS011;1861;50.240;8.596;2022-11-20T06:36:11;24.47;;;11.93;;
3689;SDS011;1861;50.240;8.596;2022-11-20T06:38:40;21.53;;;11.90;;
3689;SDS011;1861;50.240;8.596;2022-11-20T06:41:10;20.70;;;12.40;;
3689;SDS011;1861;50.240;8.596;2022-11-20T06:43:39;23.40;;;12.70;;
3689;SDS011;1861;50.240;8.596;2022-11-20T06:46:08;18.57;;;10.93;;
3689;SDS011;1861;50.240;8.596;2022-11-20T06:48:38;18.83;;;10.30;;
3689;SDS011;1861;50.240;8.596;2022-11-20T06:51:07;26.90;;;12.40;;
3689;SDS011;1861;50.240;8.596;2022-11-20T06:53:35;24.43;;;12.00;;
3689;SDS011;1861;50.240;8.596;2022-11-20T06:56:04;21.63;;;11.30;;
3689;SDS011;1861;50.240;8.596;2022-11-20T06:58:34;25.73;;;11.63;;
3689;SDS011;1861;50.240;8.596;2022-11-20T07:01:03;23.17;;;12.40;;
3689;SDS011;1861;50.240;8.596;2022-11-20T07:03:33;25.73;;;12.53;;
3689;SDS011;1861;50.240;8.596;2022-11-20T07:06:03;27.23;;;13.97;;
3689;SDS011;1861;50.240;8.596;2022-11-20T07:08:32;25.00;;;11.23;;
3689;SDS011;1861;50.240;8.596;2022-11-20T07:11:02;26.00;;;12.63;;
3689;SDS011;1861;50.240;8.596;2022-11-20T07:13:31;24.63;;;13.10;;
3689;SDS011;1861;50.240;8.596;2022-11-20T07:16:00;22.30;;;12.40;;
3689;SDS011;1861;50.240;8.596;2022-11-20T07:18:29;25.40;;;12.17;;
3689;SDS011;1861;50.240;8.596;2022-11-20T07:20:59;23.00;;;12.50;;
3689;SDS011;1861;50.240;8.596;2022-11-20T07:23:29;25.30;;;12.53;;
3689;SDS011;1861;50.240;8.596;2022-11-20T07:25:57;26.87;;;12.90;;
3689;SDS011;1861;50.240;8.596;2022-11-20T07:28:25;26.47;;;13.40;;
3689;SDS011;1861;50.240;8.596;2022-11-20T07:30:53;23.87;;;12.43;;
3689;SDS011;1861;50.240;8.596;2022-11-20T07:33:21;25.33;;;12.23;;
3689;SDS011;1861;50.240;8.596;2022-11-20T07:35:49;29.40;;;13.30;;
3689;SDS011;1861;50.240;8.596;2022-11-20T07:38:17;25.47;;;12.33;;
3689;SDS011;1861;50.240;8.596;2022-11-20T07:40:47;27.57;;;14.17;;
3689;SDS011;1861;50.240;8.596;2022-11-20T07:43:15;27.13;;;13.07;;
3689;SDS011;1861;50.240;8.596;2022-11-20T07:45:43;23.33;;;12.03;;
3689;SDS011;1861;50.240;8.596;2022-11-20T07:48:11;24.93;;;11.30;;
3689;SDS011;1861;50.240;8.596;2022-11-20T07:50:39;26.53;;;13.40;;
3689;SDS011;1861;50.240;8.596;2022-11-20T07:53:07;31.77;;;12.60;;
3689;SDS011;1861;50.240;8.596;2022-11-20T07:55:35;33.30;;;14.47;;
3689;SDS011;1861;50.240;8.596;2022-11-20T07:58:05;28.63;;;13.23;;
3689;SDS011;1861;50.240;8.596;2022-11-20T08:00:33;25.63;;;12.90;;
3689;SDS011;1861;50.240;8.596;2022-11-20T08:03:02;26.87;;;13.60;;
3689;SDS011;1861;50.240;8.596;2022-11-20T08:05:31;31.07;;;14.67;;
3689;SDS011;1861;50.240;8.596;2022-11-20T08:07:59;27.37;;;13.70;;
3689;SDS011;1861;50.240;8.596;2022-11-20T08:10:27;35.50;;;14.60;;
3689;SDS011;1861;50.240;8.596;2022-11-20T08:12:55;29.30;;;13.20;;
3689;SDS011;1861;50.240;8.596;2022-11-20T08:15:47;27.27;;;12.47;;
3689;SDS011;1861;50.240;8.596;2022-11-20T08:18:15;30.60;;;13.87;;
3689;SDS011;1861;50.240;8.596;2022-11-20T08:21:01;31.70;;;13.63;;
3689;SDS011;1861;50.240;8.596;2022-11-20T08:23:30;27.50;;;13.10;;
3689;SDS011;1861;50.240;8.596;2022-11-20T08:25:58;26.60;;;13.30;;
3689;SDS011;1861;50.240;8.596;2022-11-20T08:28:26;30.57;;;14.77;;
3689;SDS011;1861;50.240;8.596;2022-11-20T08:30:58;34.53;;;13.37;;
3689;SDS011;1861;50.240;8.596;2022-11-20T08:33:27;35.13;;;14.30;;
3689;SDS011;1861;50.240;8.596;2022-11-20T08:35:58;36.00;;;15.07;;
3689;SDS011;1861;50.240;8.596;2022-11-20T08:38:27;32.70;;;15.03;;
3689;SDS011;1861;50.240;8.596;2022-11-20T08:40:56;30.80;;;14.60;;
3689;SDS011;1861;50.240;8.596;2022-11-20T08:43:42;32.67;;;14.37;;
3689;SDS011;1861;50.240;8.596;2022-11-20T08:46:12;34.50;;;15.00;;
3689;SDS011;1861;50.240;8.596;2022-11-20T08:48:40;32.67;;;14.37;;
3689;SDS011;1861;50.240;8.596;2022-11-20T08:51:08;33.30;;;15.47;;
3689;SDS011;1861;50.240;8.596;2022-11-20T08:53:37;31.87;;;14.97;;
3689;SDS011;1861;50.240;8.596;2022-11-20T08:56:05;31.63;;;14.90;;
3689;SDS011;1861;50.240;8.596;2022-11-20T08:58:34;35.70;;;14.17;;
3689;SDS011;1861;50.240;8.596;2022-11-20T09:01:23;34.43;;;15.87;;
3689;SDS011;1861;50.240;8.596;2022-11-20T09:03:52;30.00;;;14.00;;
3689;SDS011;1861;50.240;8.596;2022-11-20T09:06:22;30.63;;;13.87;;
3689;SDS011;1861;50.240;8.596;2022-11-20T09:08:51;26.67;;;12.23;;
3689;SDS011;1861;50.240;8.596;2022-11-20T09:11:19;31.13;;;13.10;;
3689;SDS011;1861;50.240;8.596;2022-11-20T09:13:47;35.17;;;14.63;;
3689;SDS011;1861;50.240;8.596;2022-11-20T09:16:16;30.30;;;13.97;;
3689;SDS011;1861;50.240;8.596;2022-11-20T09:18:45;35.50;;;15.70;;
3689;SDS011;1861;50.240;8.596;2022-11-20T09:21:32;28.80;;;13.50;;
3689;SDS011;1861;50.240;8.596;2022-11-20T09:24:01;24.70;;;12.13;;
3689;SDS011;1861;50.240;8.596;2022-11-20T09:26:29;33.70;;;13.40;;
3689;SDS011;1861;50.240;8.596;2022-11-20T09:28:57;39.33;;;16.10;;
3689;SDS011;1861;50.240;8.596;2022-11-20T09:31:25;38.13;;;15.00;;
3689;SDS011;1861;50.240;8.596;2022-11-20T09:33:54;32.93;;;15.57;;
3689;SDS011;1861;50.240;8.596;2022-11-20T09:36:23;38.40;;;15.33;;
3689;SDS011;1861;50.240;8.596;2022-11-20T09:38:51;32.47;;;15.47;;
3689;SDS011;1861;50.240;8.596;2022-11-20T09:41:27;35.73;;;14.30;;
3689;SDS011;1861;50.240;8.596;2022-11-20T09:44:19;32.20;;;13.27;;
3689;SDS011;1861;50.240;8.596;2022-11-20T09:46:59;35.63;;;14.60;;
3689;SDS011;1861;50.240;8.596;2022-11-20T09:49:33;34.13;;;13.77;;
3689;SDS011;1861;50.240;8.596;2022-11-20T09:52:16;34.23;;;13.57;;
3689;SDS011;1861;50.240;8.596;2022-11-20T09:54:49;30.20;;;13.07;;
3689;SDS011;1861;50.240;8.596;2022-11-20T09:57:18;25.70;;;13.60;;
3689;SDS011;1861;50.240;8.596;2022-11-20T09:59:49;35.20;;;14.90;;
3689;SDS011;1861;50.240;8.596;2022-11-20T10:02:24;28.83;;;12.47;;
3689;SDS011;1861;50.240;8.596;2022-11-20T10:04:58;28.33;;;13.13;;
3689;SDS011;1861;50.240;8.596;2022-11-20T10:07:35;31.53;;;13.37;;
3689;SDS011;1861;50.240;8.596;2022-11-20T10:10:13;29.37;;;14.03;;
3689;SDS011;1861;50.240;8.596;2022-11-20T10:12:48;29.77;;;12.87;;
3689;SDS011;1861;50.240;8.596;2022-11-20T10:15:27;27.70;;;12.60;;
3689;SDS011;1861;50.240;8.596;2022-11-20T10:18:13;27.17;;;12.37;;
3689;SDS011;1861;50.240;8.596;2022-11-20T10:20:53;25.30;;;12.27;;
3689;SDS011;1861;50.240;8.596;2022-11-20T10:23:33;27.93;;;12.63;;
3689;SDS011;1861;50.240;8.596;2022-11-20T10:26:17;41.23;;;14.00;;
3689;SDS011;1861;50.240;8.596;2022-11-20T10:28:54;28.23;;;13.43;;
3689;SDS011;1861;50.240;8.596;2022-11-20T10:31:35;26.53;;;12.87;;
3689;SDS011;1861;50.240;8.596;2022-11-20T10:34:06;29.83;;;14.20;;
3689;SDS011;1861;50.240;8.596;2022-11-20T10:36:51;26.50;;;12.80;;
3689;SDS011;1861;50.240;8.596;2022-11-20T10:39:25;29.63;;;12.70;;
3689;SDS011;1861;50.240;8.596;2022-11-20T10:42:01;31.63;;;13.97;;
3689;SDS011;1861;50.240;8.596;2022-11-20T10:44:32;28.80;;;12.90;;
3689;SDS011;1861;50.240;8.596;2022-11-20T10:47:22;31.93;;;13.47;;
3689;SDS011;1861;50.240;8.596;2022-11-20T10:49:53;35.23;;;14.97;;
3689;SDS011;1861;50.240;8.596;2022-11-20T10:52:28;32.37;;;14.17;;
3689;SDS011;1861;50.240;8.596;2022-11-20T10:55:04;30.20;;;13.70;;
3689;SDS011;1861;50.240;8.596;2022-11-20T10:57:45;34.20;;;15.93;;
3689;SDS011;1861;50.240;8.596;2022-11-20T11:00:18;30.80;;;13.30;;
3689;SDS011;1861;50.240;8.596;2022-11-20T11:02:47;30.57;;;14.43;;
3689;SDS011;1861;50.240;8.596;2022-11-20T11:05:25;37.60;;;14.93;;
3689;SDS011;1861;50.240;8.596;2022-11-20T11:08:02;31.57;;;13.20;;
3689;SDS011;1861;50.240;8.596;2022-11-20T11:10:32;25.37;;;11.90;;
3689;SDS011;1861;50.240;8.596;2022-11-20T11:13:07;29.43;;;13.20;;
3689;SDS011;1861;50.240;8.596;2022-11-20T11:15:47;32.60;;;14.60;;
3689;SDS011;1861;50.240;8.596;2022-11-20T11:18:26;28.43;;;13.10;;
3689;SDS011;1861;50.240;8.596;2022-11-20T11:20:56;26.70;;;12.90;;
3689;SDS011;1861;50.240;8.596;2022-11-20T11:23:31;30.70;;;14.30;;
3689;SDS011;1861;50.240;8.596;2022-11-20T11:26:01;30.43;;;12.40;;
3689;SDS011;1861;50.240;8.596;2022-11-20T11:28:31;30.27;;;13.10;;
3689;SDS011;1861;50.240;8.596;2022-11-20T11:31:00;30.10;;;12.83;;
3689;SDS011;1861;50.240;8.596;2022-11-20T11:33:28;25.87;;;12.17;;
3689;SDS011;1861;50.240;8.596;2022-11-20T11:36:01;24.87;;;12.83;;
3689;SDS011;1861;50.240;8.596;2022-11-20T11:38:33;28.87;;;13.67;;
3689;SDS011;1861;50.240;8.596;2022-11-20T11:41:04;23.83;;;10.97;;
3689;SDS011;1861;50.240;8.596;2022-11-20T11:43:35;30.30;;;13.93;;
3689;SDS011;1861;50.240;8.596;2022-11-20T11:46:27;33.30;;;13.63;;
3689;SDS011;1861;50.240;8.596;2022-11-20T11:48:59;27.97;;;12.43;;
3689;SDS011;1861;50.240;8.596;2022-11-20T11:51:34;28.50;;;12.27;;
3689;SDS011;1861;50.240;8.596;2022-11-20T11:54:12;28.60;;;14.37;;
3689;SDS011;1861;50.240;8.596;2022-11-20T11:56:46;24.47;;;12.13;;
3689;SDS011;1861;50.240;8.596;2022-11-20T11:59:15;31.43;;;14.20;;
3689;SDS011;1861;50.240;8.596;2022-11-20T12:01:52;28.80;;;13.97;;
3689;SDS011;1861;50.240;8.596;2022-11-20T12:04:25;29.70;;;13.20;;
3689;SDS011;1861;50.240;8.596;2022-11-20T12:07:08;29.33;;;12.90;;
3689;SDS011;1861;50.240;8.596;2022-11-20T12:10:05;28.63;;;13.47;;
3689;SDS011;1861;50.240;8.596;2022-11-20T12:12:40;27.50;;;11.53;;
3689;SDS011;1861;50.240;8.596;2022-11-20T12:15:13;25.87;;;12.33;;
3689;SDS011;1861;50.240;8.596;2022-11-20T12:17:54;23.93;;;11.37;;
3689;SDS011;1861;50.240;8.596;2022-11-20T12:20:22;25.60;;;11.87;;
3689;SDS011;1861;50.240;8.596;2022-11-20T12:22:54;26.40;;;12.47;;
3689;SDS011;1861;50.240;8.596;2022-11-20T12:25:31;26.63;;;12.30;;
3689;SDS011;1861;50.240;8.596;2022-11-20T12:28:06;28.20;;;12.30;;
3689;SDS011;1861;50.240;8.596;2022-11-20T12:31:04;26.63;;;12.00;;
3689;SDS011;1861;50.240;8.596;2022-11-20T12:33:52;24.93;;;11.43;;
3689;SDS011;1861;50.240;8.596;2022-11-20T12:36:32;25.10;;;12.00;;
3689;SDS011;1861;50.240;8.596;2022-11-20T12:39:11;29.00;;;12.87;;
3689;SDS011;1861;50.240;8.596;2022-11-20T12:42:00;35.53;;;14.27;;
3689;SDS011;1861;50.240;8.596;2022-11-20T12:45:10;35.03;;;13.50;;
3689;SDS011;1861;50.240;8.596;2022-11-20T12:47:50;33.40;;;14.10;;
3689;SDS011;1861;50.240;8.596;2022-11-20T12:50:28;29.13;;;14.23;;
3689;SDS011;1861;50.240;8.596;2022-11-20T12:53:27;30.27;;;13.70;;
3689;SDS011;1861;50.240;8.596;2022-11-20T12:56:02;29.70;;;13.20;;
3689;SDS011;1861;50.240;8.596;2022-11-20T12:58:43;30.80;;;13.50;;
3689;SDS011;1861;50.240;8.596;2022-11-20T13:01:24;37.67;;;13.00;;
3689;SDS011;1861;50.240;8.596;2022-11-20T13:04:15;27.83;;;13.50;;
3689;SDS011;1861;50.240;8.596;2022-11-20T13:06:53;35.13;;;14.57;;
3689;SDS011;1861;50.240;8.596;2022-11-20T13:09:22;31.33;;;14.10;;
3689;SDS011;1861;50.240;8.596;2022-11-20T13:11:53;32.10;;;14.33;;
3689;SDS011;1861;50.240;8.596;2022-11-20T13:14:31;32.50;;;14.33;;
3689;SDS011;1861;50.240;8.596;2022-11-20T13:17:05;31.40;;;14.43;;
3689;SDS011;1861;50.240;8.596;2022-11-20T13:19:41;33.10;;;16.70;;
3689;SDS011;1861;50.240;8.596;2022-11-20T13:22:23;30.60;;;14.17;;
3689;SDS011;1861;50.240;8.596;2022-11-20T13:24:53;31.43;;;15.03;;
3689;SDS011;1861;50.240;8.596;2022-11-20T13:27:21;35.73;;;14.90;;
3689;SDS011;1861;50.240;8.596;2022-11-20T13:30:02;31.03;;;14.20;;
3689;SDS011;1861;50.240;8.596;2022-11-20T13:32:47;30.07;;;13.50;;
3689;SDS011;1861;50.240;8.596;2022-11-20T13:35:25;28.30;;;12.60;;
3689;SDS011;1861;50.240;8.596;2022-11-20T13:37:59;33.87;;;13.93;;
3689;SDS011;1861;50.240;8.596;2022-11-20T13:40:32;29.10;;;12.80;;
3689;SDS011;1861;50.240;8.596;2022-11-20T13:43:07;30.63;;;13.60;;
3689;SDS011;1861;50.240;8.596;2022-11-20T13:45:55;36.03;;;14.80;;
3689;SDS011;1861;50.240;8.596;2022-11-20T13:48:26;32.10;;;14.07;;
3689;SDS011;1861;50.240;8.596;2022-11-20T13:51:09;33.40;;;13.73;;
3689;SDS011;1861;50.240;8.596;2022-11-20T13:53:49;23.67;;;11.30;;
3689;SDS011;1861;50.240;8.596;2022-11-20T13:56:43;24.33;;;12.30;;
3689;SDS011;1861;50.240;8.596;2022-11-20T13:59:27;28.47;;;12.40;;
3689;SDS011;1861;50.240;8.596;2022-11-20T14:02:05;31.27;;;13.57;;
3689;SDS011;1861;50.240;8.596;2022-11-20T14:04:40;29.87;;;12.90;;
3689;SDS011;1861;50.240;8.596;2022-11-20T14:07:11;28.50;;;12.50;;
3689;SDS011;1861;50.240;8.596;2022-11-20T14:09:48;24.90;;;12.27;;
3689;SDS011;1861;50.240;8.596;2022-11-20T14:12:18;26.13;;;12.13;;
3689;SDS011;1861;50.240;8.596;2022-11-20T14:14:48;29.80;;;12.40;;
3689;SDS011;1861;50.240;8.596;2022-11-20T14:17:20;25.33;;;12.10;;
3689;SDS011;1861;50.240;8.596;2022-11-20T14:19:50;27.60;;;12.87;;
3689;SDS011;1861;50.240;8.596;2022-11-20T14:22:20;29.77;;;12.77;;
3689;SDS011;1861;50.240;8.596;2022-11-20T14:25:01;32.37;;;12.93;;
3689;SDS011;1861;50.240;8.596;2022-11-20T14:27:33;27.13;;;13.10;;
3689;SDS011;1861;50.240;8.596;2022-11-20T14:30:04;28.90;;;13.17;;
3689;SDS011;1861;50.240;8.596;2022-11-20T14:32:34;32.40;;;13.03;;
3689;SDS011;1861;50.240;8.596;2022-11-20T14:35:06;27.47;;;12.60;;
3689;SDS011;1861;50.240;8.596;2022-11-20T14:37:37;36.30;;;15.37;;
3689;SDS011;1861;50.240;8.596;2022-11-20T14:40:21;34.97;;;14.77;;
3689;SDS011;1861;50.240;8.596;2022-11-20T14:42:51;39.43;;;15.73;;
3689;SDS011;1861;50.240;8.596;2022-11-20T14:45:20;30.20;;;14.20;;
3689;SDS011;1861;50.240;8.596;2022-11-20T14:47:51;31.63;;;13.63;;
3689;SDS011;1861;50.240;8.596;2022-11-20T14:50:21;35.10;;;15.53;;
3689;SDS011;1861;50.240;8.596;2022-11-20T14:52:51;38.17;;;16.70;;
3689;SDS011;1861;50.240;8.596;2022-11-20T14:55:30;38.03;;;15.37;;
3689;SDS011;1861;50.240;8.596;2022-11-20T14:58:01;35.57;;;15.37;;
3689;SDS011;1861;50.240;8.596;2022-11-20T15:00:30;31.33;;;14.20;;
3689;SDS011;1861;50.240;8.596;2022-11-20T15:03:01;33.43;;;15.40;;
3689;SDS011;1861;50.240;8.596;2022-11-20T15:05:43;36.87;;;15.43;;
3689;SDS011;1861;50.240;8.596;2022-11-20T15:08:13;36.70;;;15.20;;
3689;SDS011;1861;50.240;8.596;2022-11-20T15:10:45;41.40;;;16.73;;
3689;SDS011;1861;50.240;8.596;2022-11-20T15:13:15;38.90;;;16.67;;
3689;SDS011;1861;50.240;8.596;2022-11-20T15:15:48;38.40;;;16.23;;
3689;SDS011;1861;50.240;8.596;2022-11-20T15:18:20;34.00;;;14.60;;
3689;SDS011;1861;50.240;8.596;2022-11-20T15:20:50;34.63;;;15.57;;